createdAt,value
2023-03-03T00:03:24.684Z,48.10
2023-03-03T00:05:58.514Z,40.35
2023-03-03T00:08:34.573Z,38.58
2023-03-03T00:11:03.377Z,43.35
2023-03-03T00:13:32.819Z,44.25
2023-03-03T00:16:16.446Z,41.90
2023-03-03T00:18:47.979Z,43.75
2023-03-03T00:21:49.270Z,39.38
2023-03-03T00:24:23.469Z,34.35
2023-03-03T00:26:52.168Z,38.47
2023-03-03T00:29:28.028Z,30.48
2023-03-03T00:31:55.199Z,32.25
2023-03-03T00:34:27.141Z,37.70
2023-03-03T00:36:59.377Z,37.83
2023-03-03T00:39:36.760Z,36.03
2023-03-03T00:42:13.578Z,34.60
2023-03-03T00:44:48.670Z,37.30
2023-03-03T00:47:37.000Z,36.28
2023-03-03T00:50:06.936Z,35.05
2023-03-03T00:52:39.517Z,37.47
2023-03-03T00:55:07.899Z,32.47
2023-03-03T00:57:34.912Z,35.63
2023-03-03T01:00:01.590Z,36.60
2023-03-03T01:02:28.339Z,43.00
2023-03-03T01:04:57.944Z,35.75
2023-03-03T01:07:25.825Z,35.15
2023-03-03T01:09:52.996Z,34.22
2023-03-03T01:12:19.760Z,32.72
2023-03-03T01:14:46.617Z,37.50
2023-03-03T01:17:13.340Z,36.95
2023-03-03T01:19:40.027Z,36.47
2023-03-03T01:22:07.080Z,34.30
2023-03-03T01:24:33.783Z,33.42
2023-03-03T01:27:00.540Z,33.90
2023-03-03T01:29:27.263Z,38.78
2023-03-03T01:31:54.044Z,32.88
2023-03-03T01:34:20.889Z,34.38
2023-03-03T01:36:47.765Z,38.10
2023-03-03T01:39:15.154Z,36.80
2023-03-03T01:41:41.971Z,36.60
2023-03-03T01:44:14.401Z,35.85
2023-03-03T01:46:52.628Z,34.33
2023-03-03T01:49:43.108Z,36.40
2023-03-03T01:52:38.217Z,33.30
2023-03-03T01:55:11.625Z,36.25
2023-03-03T01:57:43.341Z,32.15
2023-03-03T02:00:11.440Z,36.88
2023-03-03T02:02:39.667Z,37.38
2023-03-03T02:05:11.353Z,28.77
2023-03-03T02:07:38.728Z,39.33
2023-03-03T02:10:07.706Z,34.78
2023-03-03T02:12:40.512Z,37.28
2023-03-03T02:15:19.072Z,35.78
2023-03-03T02:17:48.558Z,37.03
2023-03-03T02:20:37.170Z,28.88
2023-03-03T02:23:15.941Z,34.17
2023-03-03T02:25:52.240Z,40.22
2023-03-03T02:28:19.061Z,33.00
2023-03-03T02:30:46.652Z,36.85
2023-03-03T02:33:13.611Z,41.27
2023-03-03T02:35:41.942Z,36.40
2023-03-03T02:38:20.746Z,35.53
2023-03-03T02:40:52.481Z,35.35
2023-03-03T02:43:22.904Z,33.60
2023-03-03T02:48:16.583Z,37.15
2023-03-03T02:50:43.291Z,36.70
2023-03-03T02:53:10.039Z,37.13
2023-03-03T02:55:36.824Z,37.60
2023-03-03T02:58:04.422Z,37.38
2023-03-03T03:00:32.561Z,32.97
2023-03-03T03:02:59.349Z,32.53
2023-03-03T03:05:26.089Z,37.60
2023-03-03T03:07:52.871Z,27.27
2023-03-03T03:10:20.019Z,36.53
2023-03-03T03:12:46.856Z,33.20
2023-03-03T03:15:13.709Z,37.75
2023-03-03T03:17:40.382Z,38.30
2023-03-03T03:20:07.443Z,36.25
2023-03-03T03:22:34.621Z,43.70
2023-03-03T03:25:02.021Z,39.43
2023-03-03T03:27:28.701Z,37.38
2023-03-03T03:29:55.425Z,33.40
2023-03-03T03:32:22.372Z,37.00
2023-03-03T03:34:49.287Z,38.25
2023-03-03T03:37:15.938Z,34.35
2023-03-03T03:39:42.818Z,30.70
2023-03-03T03:42:10.068Z,44.10
2023-03-03T03:44:36.752Z,38.30
2023-03-03T03:47:03.734Z,47.33
2023-03-03T03:49:30.615Z,38.85
2023-03-03T03:51:57.765Z,37.65
2023-03-03T03:54:24.935Z,38.83
2023-03-03T03:56:52.602Z,39.67
2023-03-03T03:59:20.192Z,39.67
2023-03-03T04:01:48.321Z,36.10
2023-03-03T04:04:16.454Z,40.80
2023-03-03T04:06:43.219Z,36.72
2023-03-03T04:09:09.955Z,45.47
2023-03-03T04:11:39.188Z,42.30
2023-03-03T04:14:09.214Z,38.13
2023-03-03T04:16:36.027Z,36.57
2023-03-03T04:19:02.734Z,35.65
2023-03-03T04:21:30.535Z,37.75
2023-03-03T04:23:57.303Z,41.07
2023-03-03T04:26:24.108Z,39.93
2023-03-03T04:31:17.314Z,36.17
2023-03-03T04:33:44.194Z,39.53
2023-03-03T04:36:11.012Z,39.15
2023-03-03T04:38:37.722Z,46.60
2023-03-03T04:41:04.581Z,35.97
2023-03-03T04:43:32.205Z,43.13
2023-03-03T04:45:59.000Z,40.83
2023-03-03T04:48:25.809Z,39.67
2023-03-03T04:50:52.493Z,37.92
2023-03-03T04:53:19.189Z,41.85
2023-03-03T04:55:46.079Z,37.93
2023-03-03T04:58:13.193Z,38.97
2023-03-03T05:00:40.246Z,41.53
2023-03-03T05:03:07.585Z,38.95
2023-03-03T05:05:34.422Z,42.17
2023-03-03T05:08:01.088Z,43.60
2023-03-03T05:10:27.928Z,42.30
2023-03-03T05:12:54.689Z,38.28
2023-03-03T05:15:21.456Z,44.60
2023-03-03T05:17:48.166Z,37.70
2023-03-03T05:20:15.538Z,42.17
2023-03-03T05:22:42.225Z,43.60
2023-03-03T05:25:10.807Z,43.53
2023-03-03T05:27:37.466Z,48.78
2023-03-03T05:30:05.141Z,43.70
2023-03-03T05:32:32.492Z,48.28
2023-03-03T05:34:59.204Z,41.13
2023-03-03T05:37:25.967Z,52.20
2023-03-03T05:39:52.675Z,41.05
2023-03-03T05:42:20.121Z,41.07
2023-03-03T05:44:46.977Z,42.88
2023-03-03T05:47:13.806Z,37.53
2023-03-03T05:49:40.854Z,37.60
2023-03-03T05:52:09.211Z,50.60
2023-03-03T05:54:36.044Z,50.63
2023-03-03T05:57:03.416Z,45.08
2023-03-03T05:59:30.389Z,49.80
2023-03-03T06:01:57.343Z,43.33
2023-03-03T06:04:24.220Z,41.80
2023-03-03T06:09:20.347Z,40.90
2023-03-03T06:11:47.171Z,49.47
2023-03-03T06:14:13.968Z,50.27
2023-03-03T06:16:40.824Z,50.20
2023-03-03T06:19:07.905Z,52.57
2023-03-03T06:21:34.566Z,51.20
2023-03-03T06:24:01.628Z,46.80
2023-03-03T06:26:28.489Z,56.50
2023-03-03T06:28:56.023Z,45.30
2023-03-03T06:31:23.703Z,47.17
2023-03-03T06:33:52.309Z,44.22
2023-03-03T06:36:19.850Z,45.93
2023-03-03T06:38:47.208Z,51.43
2023-03-03T06:41:13.969Z,45.90
2023-03-03T06:43:40.753Z,51.60
2023-03-03T06:46:07.507Z,48.25
2023-03-03T06:48:34.312Z,48.23
2023-03-03T06:51:03.316Z,56.57
2023-03-03T06:53:33.368Z,54.17
2023-03-03T06:56:02.053Z,45.37
2023-03-03T06:58:30.255Z,56.03
2023-03-03T07:01:01.811Z,45.83
2023-03-03T07:03:34.630Z,44.67
2023-03-03T07:06:03.543Z,47.20
2023-03-03T07:08:32.619Z,46.33
2023-03-03T07:11:08.333Z,45.78
2023-03-03T07:13:46.728Z,49.38
2023-03-03T07:16:15.942Z,51.70
2023-03-03T07:18:52.364Z,46.28
2023-03-03T07:21:31.021Z,55.30
2023-03-03T07:24:00.567Z,52.25
2023-03-03T07:26:34.919Z,47.00
2023-03-03T07:29:28.372Z,49.28
2023-03-03T07:31:58.336Z,44.55
2023-03-03T07:34:42.998Z,46.08
2023-03-03T07:37:20.497Z,55.25
2023-03-03T07:42:33.895Z,45.30
2023-03-03T07:45:01.976Z,50.70
2023-03-03T07:47:36.191Z,64.25
2023-03-03T07:50:31.220Z,54.03
2023-03-03T07:53:01.821Z,62.80
2023-03-03T07:55:28.466Z,58.17
2023-03-03T07:58:00.013Z,56.35
2023-03-03T08:00:26.785Z,55.03
2023-03-03T08:03:21.074Z,59.40
2023-03-03T08:05:49.783Z,49.03
2023-03-03T08:08:45.338Z,63.10
2023-03-03T08:11:12.092Z,72.43
2023-03-03T08:13:42.215Z,74.43
2023-03-03T08:16:12.526Z,54.28
2023-03-03T08:21:28.227Z,60.28
2023-03-03T08:23:55.770Z,52.47
2023-03-03T08:26:23.561Z,54.38
2023-03-03T08:31:27.975Z,72.28
2023-03-03T08:34:04.774Z,67.30
2023-03-03T08:36:33.673Z,66.20
2023-03-03T08:39:01.608Z,59.88
2023-03-03T08:41:28.364Z,58.25
2023-03-03T08:43:55.315Z,64.55
2023-03-03T08:46:23.458Z,62.42
2023-03-03T08:51:17.119Z,55.92
2023-03-03T08:53:43.977Z,60.88
2023-03-03T08:56:10.728Z,56.15
2023-03-03T08:58:37.867Z,59.85
2023-03-03T09:01:05.258Z,53.92
2023-03-03T09:03:32.100Z,53.20
2023-03-03T09:05:59.512Z,48.30
2023-03-03T09:08:26.162Z,50.47
2023-03-03T09:10:52.881Z,49.05
2023-03-03T09:13:20.659Z,56.03
2023-03-03T09:15:49.214Z,54.50
2023-03-03T09:18:26.626Z,50.85
2023-03-03T09:20:54.428Z,52.63
2023-03-03T09:23:23.940Z,46.63
2023-03-03T09:25:52.398Z,52.00
2023-03-03T09:28:30.953Z,49.70
2023-03-03T09:31:03.363Z,52.25
2023-03-03T09:33:45.427Z,51.05
2023-03-03T09:36:35.657Z,51.17
2023-03-03T09:39:23.724Z,53.03
2023-03-03T09:41:51.666Z,56.00
2023-03-03T09:44:27.287Z,56.40
2023-03-03T09:47:12.229Z,53.25
2023-03-03T09:52:52.410Z,53.33
2023-03-03T09:55:52.789Z,56.35
2023-03-03T09:58:27.620Z,51.65
2023-03-03T10:01:00.346Z,49.30
2023-03-03T10:03:46.984Z,48.47
2023-03-03T10:06:29.302Z,44.25
2023-03-03T10:09:06.867Z,46.58
2023-03-03T10:11:45.418Z,44.80
2023-03-03T10:14:21.151Z,45.63
2023-03-03T10:16:52.505Z,47.28
2023-03-03T10:19:38.046Z,45.83
2023-03-03T10:22:24.347Z,47.03
2023-03-03T10:24:52.767Z,49.58
2023-03-03T10:27:44.244Z,48.35
2023-03-03T10:30:40.851Z,46.00
2023-03-03T10:33:52.741Z,46.70
2023-03-03T10:36:35.462Z,45.38
2023-03-03T10:39:36.656Z,48.30
2023-03-03T10:42:24.913Z,48.42
2023-03-03T10:44:52.487Z,44.10
2023-03-03T10:47:40.795Z,43.35
2023-03-03T10:50:32.482Z,46.25
2023-03-03T10:53:08.233Z,42.47
2023-03-03T10:55:52.606Z,42.20
2023-03-03T10:58:52.583Z,38.65
2023-03-03T11:01:52.439Z,40.92
2023-03-03T11:04:38.107Z,37.60
2023-03-03T11:07:18.026Z,36.25
2023-03-03T11:09:52.516Z,39.90
2023-03-03T11:12:22.867Z,43.42
2023-03-03T11:14:52.628Z,39.33
2023-03-03T11:20:37.876Z,37.08
2023-03-03T11:23:22.647Z,44.05
2023-03-03T11:25:53.374Z,40.95
2023-03-03T11:28:52.441Z,41.45
2023-03-03T11:31:34.563Z,40.35
2023-03-03T11:34:12.768Z,41.45
2023-03-03T11:36:52.675Z,40.90
2023-03-03T11:39:28.196Z,40.63
2023-03-03T11:42:11.004Z,35.50
2023-03-03T11:47:31.397Z,35.83
2023-03-03T11:50:09.200Z,42.33
2023-03-03T11:52:51.603Z,38.08
2023-03-03T11:55:25.105Z,37.03
2023-03-03T11:57:57.601Z,33.78
2023-03-03T12:00:52.552Z,36.10
2023-03-03T12:03:32.395Z,34.20
2023-03-03T12:06:29.436Z,32.45
2023-03-03T12:09:08.015Z,32.83
2023-03-03T12:11:54.151Z,33.35
2023-03-03T12:14:42.143Z,31.98
2023-03-03T12:17:31.278Z,35.42
2023-03-03T12:20:15.275Z,35.50
2023-03-03T12:23:05.790Z,33.72
2023-03-03T12:25:38.812Z,34.05
2023-03-03T12:28:32.327Z,34.35
2023-03-03T12:31:22.998Z,33.70
2023-03-03T12:33:52.512Z,29.77
2023-03-03T12:36:37.660Z,30.77
2023-03-03T12:39:34.795Z,34.03
2023-03-03T12:42:20.649Z,28.52
2023-03-03T12:44:53.054Z,34.70
2023-03-03T12:47:30.345Z,33.40
2023-03-03T12:50:18.405Z,29.05
2023-03-03T12:52:56.919Z,35.25
2023-03-03T12:55:52.579Z,32.78
2023-03-03T12:58:26.675Z,32.33
2023-03-03T13:01:17.902Z,32.90
2023-03-03T13:03:56.131Z,30.30
2023-03-03T13:06:31.155Z,30.20
2023-03-03T13:09:35.198Z,31.17
2023-03-03T13:12:40.280Z,28.35
2023-03-03T13:15:16.095Z,31.33
2023-03-03T13:17:52.712Z,27.40
2023-03-03T13:20:47.323Z,28.67
2023-03-03T13:23:32.309Z,30.25
2023-03-03T13:26:06.193Z,28.17
2023-03-03T13:28:52.665Z,26.17
2023-03-03T13:31:22.615Z,27.33
2023-03-03T13:33:55.227Z,27.23
2023-03-03T13:39:26.148Z,27.70
2023-03-03T13:42:19.927Z,25.45
2023-03-03T13:50:38.419Z,23.58
2023-03-03T13:53:18.182Z,27.80
2023-03-03T13:55:51.681Z,24.95
2023-03-03T13:58:45.149Z,27.45
2023-03-03T14:01:19.007Z,25.92
2023-03-03T14:03:52.732Z,25.50
2023-03-03T14:06:23.491Z,23.92
2023-03-03T14:08:52.747Z,24.13
2023-03-03T14:11:52.633Z,24.05
2023-03-03T14:14:35.902Z,25.52
2023-03-03T14:17:09.716Z,19.83
2023-03-03T14:19:52.815Z,22.13
2023-03-03T14:22:30.396Z,21.08
2023-03-03T14:25:07.948Z,23.73
2023-03-03T14:27:49.105Z,21.90
2023-03-03T14:30:25.028Z,21.17
2023-03-03T14:32:52.651Z,19.38
2023-03-03T14:35:21.448Z,21.52
2023-03-03T14:40:22.449Z,20.25
2023-03-03T14:42:52.634Z,15.07
2023-03-03T14:45:31.480Z,15.27
2023-03-03T14:47:59.828Z,16.63
2023-03-03T14:50:38.907Z,18.95
2023-03-03T14:53:12.833Z,18.95
2023-03-03T14:55:42.723Z,18.52
2023-03-03T14:58:26.354Z,22.27
2023-03-03T15:01:16.778Z,21.08
2023-03-03T15:03:52.748Z,23.15
2023-03-03T15:06:44.765Z,19.83
2023-03-03T15:09:38.444Z,22.55
2023-03-03T15:12:36.642Z,20.25
2023-03-03T15:15:06.215Z,19.38
2023-03-03T15:17:52.622Z,20.83
2023-03-03T15:20:46.213Z,20.60
2023-03-03T15:23:48.134Z,22.52
2023-03-03T15:26:33.446Z,20.80
2023-03-03T15:29:25.101Z,22.45
2023-03-03T15:31:51.999Z,20.40
2023-03-03T15:34:33.685Z,23.13
2023-03-03T15:37:24.769Z,20.40
2023-03-03T15:39:51.767Z,22.23
2023-03-03T15:42:35.894Z,19.58
2023-03-03T15:45:08.864Z,21.88
2023-03-03T15:47:38.716Z,20.88
2023-03-03T15:50:36.489Z,20.15
2023-03-03T15:53:15.051Z,20.30
2023-03-03T15:55:52.745Z,19.70
2023-03-03T15:58:19.452Z,20.05
2023-03-03T16:00:52.710Z,21.17
2023-03-03T16:03:36.555Z,20.23
2023-03-03T16:06:13.226Z,20.13
2023-03-03T16:08:52.789Z,21.10
2023-03-03T16:11:28.897Z,22.23
2023-03-03T16:14:22.463Z,21.85
2023-03-03T16:16:52.938Z,19.05
2023-03-03T16:19:38.012Z,22.35
2023-03-03T16:22:41.271Z,18.88
2023-03-03T16:25:23.418Z,19.23
2023-03-03T16:27:56.329Z,21.95
2023-03-03T16:30:32.938Z,21.25
2023-03-03T16:33:18.402Z,18.85
2023-03-03T16:38:37.544Z,17.73
2023-03-03T16:41:12.957Z,23.60
2023-03-03T16:43:48.789Z,21.58
2023-03-03T16:46:29.954Z,21.48
2023-03-03T16:49:27.542Z,22.95
2023-03-03T16:52:12.619Z,19.60
2023-03-03T16:57:23.818Z,18.83
2023-03-03T16:59:51.672Z,18.98
2023-03-03T17:02:48.596Z,20.75
2023-03-03T17:05:53.181Z,21.50
2023-03-03T17:08:36.246Z,25.13
2023-03-03T17:11:09.734Z,25.02
2023-03-03T17:13:52.690Z,24.13
2023-03-03T17:16:22.107Z,23.92
2023-03-03T17:18:51.758Z,23.85
2023-03-03T17:21:52.986Z,23.63
2023-03-03T17:24:48.770Z,22.77
2023-03-03T17:27:25.109Z,25.38
2023-03-03T17:29:56.975Z,25.95
2023-03-03T17:32:49.839Z,26.83
2023-03-03T17:35:19.397Z,28.58
2023-03-03T17:37:52.670Z,26.77
2023-03-03T17:40:37.390Z,26.42
2023-03-03T17:43:12.498Z,29.95
2023-03-03T17:45:43.400Z,26.63
2023-03-03T17:51:52.971Z,26.08
2023-03-03T17:54:49.199Z,22.73
2023-03-03T17:57:25.028Z,21.40
2023-03-03T17:59:53.266Z,20.92
2023-03-03T18:02:25.961Z,21.73
2023-03-03T18:05:16.211Z,20.25
2023-03-03T18:07:52.787Z,18.75
2023-03-03T18:10:52.678Z,19.08
2023-03-03T18:13:39.616Z,21.08
2023-03-03T18:16:12.696Z,18.73
2023-03-03T18:18:39.654Z,17.77
2023-03-03T18:21:14.769Z,18.52
2023-03-03T18:23:44.159Z,19.67
2023-03-03T18:26:34.689Z,19.67
2023-03-03T18:29:21.738Z,23.33
2023-03-03T18:31:51.822Z,20.60
2023-03-03T18:34:21.566Z,27.73
2023-03-03T18:36:53.024Z,23.05
2023-03-03T18:39:45.862Z,26.02
2023-03-03T18:42:15.985Z,19.77
2023-03-03T18:44:48.112Z,24.73
2023-03-03T18:47:17.334Z,27.15
2023-03-03T18:49:54.137Z,22.00
2023-03-03T18:52:27.569Z,20.25
2023-03-03T18:55:12.221Z,27.15
2023-03-03T18:57:39.780Z,24.27
2023-03-03T19:00:22.340Z,16.77
2023-03-03T19:02:53.040Z,20.73
2023-03-03T19:05:50.224Z,16.95
2023-03-03T19:08:25.161Z,25.40
2023-03-03T19:10:52.717Z,23.02
2023-03-03T19:13:35.002Z,19.90
2023-03-03T19:16:07.061Z,20.40
2023-03-03T19:18:48.073Z,23.85
2023-03-03T19:21:43.244Z,20.27
2023-03-03T19:24:34.140Z,21.67
2023-03-03T19:27:00.988Z,21.30
2023-03-03T19:29:46.399Z,23.40
2023-03-03T19:32:31.176Z,25.55
2023-03-03T19:35:26.100Z,21.00
2023-03-03T19:38:19.366Z,21.17
2023-03-03T19:40:51.863Z,24.95
2023-03-03T19:43:27.516Z,23.77
2023-03-03T19:46:31.112Z,22.67
2023-03-03T19:49:35.682Z,20.20
2023-03-03T19:52:19.012Z,25.60
2023-03-03T19:57:34.956Z,27.60
2023-03-03T20:00:16.512Z,27.00
2023-03-03T20:02:56.452Z,23.10
2023-03-03T20:05:52.734Z,21.20
2023-03-03T20:08:25.534Z,24.33
2023-03-03T20:11:17.815Z,25.02
2023-03-03T20:13:53.050Z,20.90
2023-03-03T20:16:28.981Z,22.95
2023-03-03T20:19:26.423Z,23.10
2023-03-03T20:22:22.178Z,22.50
2023-03-03T20:24:52.817Z,20.05
2023-03-03T20:27:46.450Z,24.23
2023-03-03T20:30:47.761Z,22.63
2023-03-03T20:33:36.987Z,22.13
2023-03-03T20:36:25.145Z,22.02
2023-03-03T20:38:52.844Z,24.33
2023-03-03T20:41:52.746Z,23.15
2023-03-03T20:47:43.705Z,22.90
2023-03-03T20:50:15.739Z,20.48
2023-03-03T20:52:52.874Z,20.85
2023-03-03T20:55:25.717Z,24.35
2023-03-03T20:57:56.057Z,22.90
2023-03-03T21:00:30.086Z,20.17
2023-03-03T21:03:14.826Z,22.05
2023-03-03T21:05:52.798Z,18.38
2023-03-03T21:08:19.552Z,22.58
2023-03-03T21:10:51.890Z,21.92
2023-03-03T21:13:32.672Z,23.08
2023-03-03T21:16:34.108Z,27.10
2023-03-03T21:19:11.409Z,18.88
2023-03-03T21:21:40.238Z,20.42
2023-03-03T21:24:08.492Z,24.92
2023-03-03T21:26:52.766Z,23.63
2023-03-03T21:29:27.112Z,24.95
2023-03-03T21:32:08.659Z,22.30
2023-03-03T21:34:36.798Z,26.50
2023-03-03T21:37:06.644Z,21.90
2023-03-03T21:39:39.367Z,20.42
2023-03-03T21:42:22.512Z,21.20
2023-03-03T21:47:33.508Z,25.27
2023-03-03T21:50:04.016Z,27.20
2023-03-03T21:52:34.562Z,24.73
2023-03-03T21:55:03.839Z,27.00
2023-03-03T21:57:32.859Z,29.88
2023-03-03T21:59:59.599Z,22.67
2023-03-03T22:02:26.340Z,23.38
2023-03-03T22:04:53.358Z,21.92
2023-03-03T22:07:20.088Z,28.23
2023-03-03T22:09:46.754Z,26.17
2023-03-03T22:12:13.738Z,23.92
2023-03-03T22:14:40.922Z,25.90
2023-03-03T22:17:07.958Z,23.90
2023-03-03T22:19:39.533Z,27.58
2023-03-03T22:22:09.740Z,26.30
2023-03-03T22:24:36.477Z,29.83
2023-03-03T22:27:04.027Z,27.60
2023-03-03T22:29:30.963Z,25.73
2023-03-03T22:31:57.683Z,24.08
2023-03-03T22:34:24.882Z,28.63
2023-03-03T22:39:17.168Z,28.70
2023-03-03T22:41:44.271Z,32.65
2023-03-03T22:44:11.010Z,34.22
2023-03-03T22:46:37.891Z,28.98
2023-03-03T22:49:06.051Z,25.92
2023-03-03T22:51:33.127Z,21.38
2023-03-03T22:54:00.000Z,29.88
2023-03-03T22:56:29.776Z,24.15
2023-03-03T22:58:56.941Z,27.13
2023-03-03T23:01:24.388Z,29.70
2023-03-03T23:06:17.506Z,27.08
2023-03-03T23:08:44.427Z,26.38
2023-03-03T23:11:11.325Z,26.35
2023-03-03T23:13:38.117Z,24.52
2023-03-03T23:16:05.216Z,27.67
2023-03-03T23:18:32.382Z,31.05
2023-03-03T23:20:59.114Z,23.98
2023-03-03T23:23:25.902Z,24.92
2023-03-03T23:25:52.973Z,28.15
2023-03-03T23:28:19.727Z,30.27
2023-03-03T23:30:46.848Z,30.90
2023-03-03T23:33:13.490Z,34.30
2023-03-03T23:35:41.414Z,31.52
2023-03-03T23:38:08.332Z,34.78
2023-03-03T23:40:35.075Z,35.70
2023-03-03T23:43:01.765Z,27.77
2023-03-03T23:45:28.575Z,35.78
2023-03-03T23:47:55.279Z,33.15
2023-03-03T23:50:21.962Z,27.83
2023-03-03T23:52:50.050Z,24.75
2023-03-03T23:55:16.755Z,26.13
2023-03-03T23:57:46.895Z,29.63
